sensor_id;sensor_type;location;lat;lon;timestamp;temperature;humidity
12504;DHT22;6316;48.118;-1.690;2023-02-15T00:01:48;7.20;99.90
12504;DHT22;6316;48.118;-1.690;2023-02-15T00:04:15;7.20;99.90
12504;DHT22;6316;48.118;-1.690;2023-02-15T00:06:41;7.20;99.90
12504;DHT22;6316;48.118;-1.690;2023-02-15T00:09:09;7.20;99.90
12504;DHT22;6316;48.118;-1.690;2023-02-15T00:11:35;7.10;99.90
12504;DHT22;6316;48.118;-1.690;2023-02-15T00:14:15;7.10;99.90
12504;DHT22;6316;48.118;-1.690;2023-02-15T00:16:43;7.10;99.90
12504;DHT22;6316;48.118;-1.690;2023-02-15T00:19:09;7.10;99.90
12504;DHT22;6316;48.118;-1.690;2023-02-15T00:21:36;7.10;99.90
12504;DHT22;6316;48.118;-1.690;2023-02-15T00:24:04;7.10;99.90
12504;DHT22;6316;48.118;-1.690;2023-02-15T00:26:30;7.10;99.90
12504;DHT22;6316;48.118;-1.690;2023-02-15T00:28:56;7.10;99.90
12504;DHT22;6316;48.118;-1.690;2023-02-15T00:31:29;7.10;99.90
12504;DHT22;6316;48.118;-1.690;2023-02-15T00:34:00;7.10;99.90
12504;DHT22;6316;48.118;-1.690;2023-02-15T00:36:26;7.10;99.90
12504;DHT22;6316;48.118;-1.690;2023-02-15T00:38:52;7.10;99.90
12504;DHT22;6316;48.118;-1.690;2023-02-15T00:41:17;7.10;99.90
12504;DHT22;6316;48.118;-1.690;2023-02-15T00:43:43;6.90;99.90
12504;DHT22;6316;48.118;-1.690;2023-02-15T00:46:09;7.00;99.90
12504;DHT22;6316;48.118;-1.690;2023-02-15T00:48:34;7.00;99.90
12504;DHT22;6316;48.118;-1.690;2023-02-15T00:51:00;7.00;99.90
12504;DHT22;6316;48.118;-1.690;2023-02-15T00:53:27;7.00;99.90
12504;DHT22;6316;48.118;-1.690;2023-02-15T00:55:53;7.00;99.90
12504;DHT22;6316;48.118;-1.690;2023-02-15T00:58:19;7.00;99.90
12504;DHT22;6316;48.118;-1.690;2023-02-15T01:00:46;7.00;99.90
12504;DHT22;6316;48.118;-1.690;2023-02-15T01:03:13;7.00;99.90
12504;DHT22;6316;48.118;-1.690;2023-02-15T01:05:39;7.00;99.90
12504;DHT22;6316;48.118;-1.690;2023-02-15T01:08:06;6.90;99.90
12504;DHT22;6316;48.118;-1.690;2023-02-15T01:10:34;6.90;99.90
12504;DHT22;6316;48.118;-1.690;2023-02-15T01:13:00;6.90;99.90
12504;DHT22;6316;48.118;-1.690;2023-02-15T01:15:26;6.90;99.90
12504;DHT22;6316;48.118;-1.690;2023-02-15T01:17:52;6.80;99.90
12504;DHT22;6316;48.118;-1.690;2023-02-15T01:20:24;6.80;99.90
12504;DHT22;6316;48.118;-1.690;2023-02-15T01:22:51;6.80;99.90
12504;DHT22;6316;48.118;-1.690;2023-02-15T01:25:17;6.80;99.90
12504;DHT22;6316;48.118;-1.690;2023-02-15T01:27:43;6.80;99.90
12504;DHT22;6316;48.118;-1.690;2023-02-15T01:30:10;6.80;99.90
12504;DHT22;6316;48.118;-1.690;2023-02-15T01:32:36;6.80;99.90
12504;DHT22;6316;48.118;-1.690;2023-02-15T01:35:01;6.80;99.90
12504;DHT22;6316;48.118;-1.690;2023-02-15T01:37:30;6.80;99.90
12504;DHT22;6316;48.118;-1.690;2023-02-15T01:39:56;6.80;99.90
12504;DHT22;6316;48.118;-1.690;2023-02-15T01:42:26;6.80;99.90
12504;DHT22;6316;48.118;-1.690;2023-02-15T01:45:00;6.80;99.90
12504;DHT22;6316;48.118;-1.690;2023-02-15T01:52:34;6.80;99.90
12504;DHT22;6316;48.118;-1.690;2023-02-15T01:55:01;6.80;99.90
12504;DHT22;6316;48.118;-1.690;2023-02-15T01:57:28;6.80;99.90
12504;DHT22;6316;48.118;-1.690;2023-02-15T01:59:57;6.80;99.90
12504;DHT22;6316;48.118;-1.690;2023-02-15T02:02:24;6.80;99.90
12504;DHT22;6316;48.118;-1.690;2023-02-15T02:04:52;6.80;99.90
12504;DHT22;6316;48.118;-1.690;2023-02-15T02:07:23;6.90;99.90
12504;DHT22;6316;48.118;-1.690;2023-02-15T02:09:50;6.80;99.90
12504;DHT22;6316;48.118;-1.690;2023-02-15T02:12:17;6.80;99.90
12504;DHT22;6316;48.118;-1.690;2023-02-15T02:14:44;6.80;99.90
12504;DHT22;6316;48.118;-1.690;2023-02-15T02:34:36;6.80;99.90
12504;DHT22;6316;48.118;-1.690;2023-02-15T02:37:17;6.80;99.90
12504;DHT22;6316;48.118;-1.690;2023-02-15T02:43:02;6.70;99.90
12504;DHT22;6316;48.118;-1.690;2023-02-15T02:45:44;6.70;99.90
12504;DHT22;6316;48.118;-1.690;2023-02-15T02:48:16;6.70;99.90
12504;DHT22;6316;48.118;-1.690;2023-02-15T02:50:44;6.70;99.90
12504;DHT22;6316;48.118;-1.690;2023-02-15T02:53:10;6.70;99.90
12504;DHT22;6316;48.118;-1.690;2023-02-15T02:55:59;6.60;99.90
12504;DHT22;6316;48.118;-1.690;2023-02-15T02:58:39;6.60;99.90
12504;DHT22;6316;48.118;-1.690;2023-02-15T03:01:11;6.60;99.90
12504;DHT22;6316;48.118;-1.690;2023-02-15T03:03:44;6.60;99.90
12504;DHT22;6316;48.118;-1.690;2023-02-15T03:06:16;6.60;99.90
12504;DHT22;6316;48.118;-1.690;2023-02-15T03:08:48;6.60;99.90
12504;DHT22;6316;48.118;-1.690;2023-02-15T03:11:16;6.60;99.90
12504;DHT22;6316;48.118;-1.690;2023-02-15T03:13:43;6.60;99.90
12504;DHT22;6316;48.118;-1.690;2023-02-15T03:16:11;6.60;99.90
12504;DHT22;6316;48.118;-1.690;2023-02-15T03:19:01;6.60;99.90
12504;DHT22;6316;48.118;-1.690;2023-02-15T03:21:44;6.60;99.90
12504;DHT22;6316;48.118;-1.690;2023-02-15T03:24:19;6.60;99.90
12504;DHT22;6316;48.118;-1.690;2023-02-15T03:26:49;6.60;99.90
12504;DHT22;6316;48.118;-1.690;2023-02-15T03:29:17;6.60;99.90
12504;DHT22;6316;48.118;-1.690;2023-02-15T03:31:46;6.60;99.90
12504;DHT22;6316;48.118;-1.690;2023-02-15T03:34:15;6.60;99.90
12504;DHT22;6316;48.118;-1.690;2023-02-15T03:39:20;6.60;99.90
12504;DHT22;6316;48.118;-1.690;2023-02-15T03:44:33;6.60;99.90
12504;DHT22;6316;48.118;-1.690;2023-02-15T03:47:08;6.50;99.90
12504;DHT22;6316;48.118;-1.690;2023-02-15T03:49:52;6.50;99.90
12504;DHT22;6316;48.118;-1.690;2023-02-15T03:52:20;6.50;99.90
12504;DHT22;6316;48.118;-1.690;2023-02-15T03:54:46;6.50;99.90
12504;DHT22;6316;48.118;-1.690;2023-02-15T03:57:20;6.50;99.90
12504;DHT22;6316;48.118;-1.690;2023-02-15T04:00:15;6.50;99.90
12504;DHT22;6316;48.118;-1.690;2023-02-15T04:05:45;6.50;99.90
12504;DHT22;6316;48.118;-1.690;2023-02-15T04:08:12;6.40;99.90
12504;DHT22;6316;48.118;-1.690;2023-02-15T04:10:38;6.40;99.90
12504;DHT22;6316;48.118;-1.690;2023-02-15T04:13:39;6.40;99.90
12504;DHT22;6316;48.118;-1.690;2023-02-15T04:16:05;6.40;99.90
12504;DHT22;6316;48.118;-1.690;2023-02-15T04:18:37;6.40;99.90
12504;DHT22;6316;48.118;-1.690;2023-02-15T04:21:23;6.30;99.90
12504;DHT22;6316;48.118;-1.690;2023-02-15T04:24:08;6.30;99.90
12504;DHT22;6316;48.118;-1.690;2023-02-15T04:26:53;6.30;99.90
12504;DHT22;6316;48.118;-1.690;2023-02-15T04:29:20;6.30;99.90
12504;DHT22;6316;48.118;-1.690;2023-02-15T04:31:46;6.30;99.90
12504;DHT22;6316;48.118;-1.690;2023-02-15T04:34:13;6.20;99.90
12504;DHT22;6316;48.118;-1.690;2023-02-15T04:36:39;6.20;99.90
12504;DHT22;6316;48.118;-1.690;2023-02-15T04:39:05;6.20;99.90
12504;DHT22;6316;48.118;-1.690;2023-02-15T04:41:31;6.20;99.90
12504;DHT22;6316;48.118;-1.690;2023-02-15T04:43:57;6.20;99.90
12504;DHT22;6316;48.118;-1.690;2023-02-15T04:46:23;6.20;99.90
12504;DHT22;6316;48.118;-1.690;2023-02-15T04:48:48;6.20;99.90
12504;DHT22;6316;48.118;-1.690;2023-02-15T04:51:14;6.20;99.90
12504;DHT22;6316;48.118;-1.690;2023-02-15T04:53:40;6.10;99.90
12504;DHT22;6316;48.118;-1.690;2023-02-15T04:56:05;6.10;99.90
12504;DHT22;6316;48.118;-1.690;2023-02-15T04:58:31;6.10;99.90
12504;DHT22;6316;48.118;-1.690;2023-02-15T05:00:57;6.10;99.90
12504;DHT22;6316;48.118;-1.690;2023-02-15T05:03:24;6.10;99.90
12504;DHT22;6316;48.118;-1.690;2023-02-15T05:05:50;6.10;99.90
12504;DHT22;6316;48.118;-1.690;2023-02-15T05:08:15;6.10;99.90
12504;DHT22;6316;48.118;-1.690;2023-02-15T05:10:41;6.10;99.90
12504;DHT22;6316;48.118;-1.690;2023-02-15T05:13:07;6.10;99.90
12504;DHT22;6316;48.118;-1.690;2023-02-15T05:15:33;6.10;99.90
12504;DHT22;6316;48.118;-1.690;2023-02-15T05:17:58;6.10;99.90
12504;DHT22;6316;48.118;-1.690;2023-02-15T05:20:24;6.10;99.90
12504;DHT22;6316;48.118;-1.690;2023-02-15T05:22:53;6.10;99.90
12504;DHT22;6316;48.118;-1.690;2023-02-15T05:25:19;6.10;99.90
12504;DHT22;6316;48.118;-1.690;2023-02-15T05:28:04;6.10;99.90
12504;DHT22;6316;48.118;-1.690;2023-02-15T05:30:44;6.10;99.90
12504;DHT22;6316;48.118;-1.690;2023-02-15T05:33:10;6.10;99.90
12504;DHT22;6316;48.118;-1.690;2023-02-15T05:35:36;6.20;99.90
12504;DHT22;6316;48.118;-1.690;2023-02-15T05:38:01;6.20;99.90
12504;DHT22;6316;48.118;-1.690;2023-02-15T05:40:27;6.20;99.90
12504;DHT22;6316;48.118;-1.690;2023-02-15T05:42:53;6.20;99.90
12504;DHT22;6316;48.118;-1.690;2023-02-15T05:45:18;6.20;99.90
12504;DHT22;6316;48.118;-1.690;2023-02-15T05:47:44;6.30;99.90
12504;DHT22;6316;48.118;-1.690;2023-02-15T05:50:10;6.30;99.90
12504;DHT22;6316;48.118;-1.690;2023-02-15T05:52:36;6.30;99.90
12504;DHT22;6316;48.118;-1.690;2023-02-15T05:55:03;6.30;99.90
12504;DHT22;6316;48.118;-1.690;2023-02-15T05:57:29;6.30;99.90
12504;DHT22;6316;48.118;-1.690;2023-02-15T05:59:55;6.30;99.90
12504;DHT22;6316;48.118;-1.690;2023-02-15T06:02:21;6.30;99.90
12504;DHT22;6316;48.118;-1.690;2023-02-15T06:04:46;6.30;99.90
12504;DHT22;6316;48.118;-1.690;2023-02-15T06:07:12;6.30;99.90
12504;DHT22;6316;48.118;-1.690;2023-02-15T06:09:38;6.30;99.90
12504;DHT22;6316;48.118;-1.690;2023-02-15T06:12:03;6.30;99.90
12504;DHT22;6316;48.118;-1.690;2023-02-15T06:14:29;6.30;99.90
12504;DHT22;6316;48.118;-1.690;2023-02-15T06:16:55;6.20;99.90
12504;DHT22;6316;48.118;-1.690;2023-02-15T06:19:20;6.20;99.90
12504;DHT22;6316;48.118;-1.690;2023-02-15T06:21:48;6.20;99.90
12504;DHT22;6316;48.118;-1.690;2023-02-15T06:24:14;6.20;99.90
12504;DHT22;6316;48.118;-1.690;2023-02-15T06:26:39;6.20;99.90
12504;DHT22;6316;48.118;-1.690;2023-02-15T06:29:05;6.20;99.90
12504;DHT22;6316;48.118;-1.690;2023-02-15T06:31:31;6.10;99.90
12504;DHT22;6316;48.118;-1.690;2023-02-15T06:33:56;6.10;99.90
12504;DHT22;6316;48.118;-1.690;2023-02-15T06:36:29;6.10;99.90
12504;DHT22;6316;48.118;-1.690;2023-02-15T06:38:55;6.00;99.90
12504;DHT22;6316;48.118;-1.690;2023-02-15T06:41:21;6.00;99.90
12504;DHT22;6316;48.118;-1.690;2023-02-15T06:43:47;6.00;99.90
12504;DHT22;6316;48.118;-1.690;2023-02-15T06:46:12;5.90;99.90
12504;DHT22;6316;48.118;-1.690;2023-02-15T06:48:38;5.90;99.90
12504;DHT22;6316;48.118;-1.690;2023-02-15T06:51:04;5.90;99.90
12504;DHT22;6316;48.118;-1.690;2023-02-15T06:53:29;5.80;99.90
12504;DHT22;6316;48.118;-1.690;2023-02-15T06:56:06;5.80;99.90
12504;DHT22;6316;48.118;-1.690;2023-02-15T06:58:41;5.80;99.90
12504;DHT22;6316;48.118;-1.690;2023-02-15T07:01:07;5.70;99.90
12504;DHT22;6316;48.118;-1.690;2023-02-15T07:03:34;5.70;99.90
12504;DHT22;6316;48.118;-1.690;2023-02-15T07:06:01;5.70;99.90
12504;DHT22;6316;48.118;-1.690;2023-02-15T07:08:29;5.70;99.90
12504;DHT22;6316;48.118;-1.690;2023-02-15T07:10:55;5.70;99.90
12504;DHT22;6316;48.118;-1.690;2023-02-15T07:13:41;5.70;99.90
12504;DHT22;6316;48.118;-1.690;2023-02-15T07:16:08;5.60;99.90
12504;DHT22;6316;48.118;-1.690;2023-02-15T07:18:34;5.60;99.90
12504;DHT22;6316;48.118;-1.690;2023-02-15T07:21:00;5.60;99.90
12504;DHT22;6316;48.118;-1.690;2023-02-15T07:23:25;5.60;99.90
12504;DHT22;6316;48.118;-1.690;2023-02-15T07:26:00;5.60;99.90
12504;DHT22;6316;48.118;-1.690;2023-02-15T07:28:27;5.60;99.90
12504;DHT22;6316;48.118;-1.690;2023-02-15T07:30:52;5.60;99.90
12504;DHT22;6316;48.118;-1.690;2023-02-15T07:33:18;5.60;99.90
12504;DHT22;6316;48.118;-1.690;2023-02-15T07:35:51;5.60;99.90
12504;DHT22;6316;48.118;-1.690;2023-02-15T07:38:18;5.60;99.90
12504;DHT22;6316;48.118;-1.690;2023-02-15T07:40:44;5.60;99.90
12504;DHT22;6316;48.118;-1.690;2023-02-15T07:43:10;5.60;99.90
12504;DHT22;6316;48.118;-1.690;2023-02-15T07:45:36;5.60;99.90
12504;DHT22;6316;48.118;-1.690;2023-02-15T07:48:02;5.60;99.90
12504;DHT22;6316;48.118;-1.690;2023-02-15T07:50:28;5.60;99.90
12504;DHT22;6316;48.118;-1.690;2023-02-15T07:52:54;5.70;99.90
12504;DHT22;6316;48.118;-1.690;2023-02-15T07:55:19;5.70;99.90
12504;DHT22;6316;48.118;-1.690;2023-02-15T07:57:46;5.70;99.90
12504;DHT22;6316;48.118;-1.690;2023-02-15T08:00:14;5.80;99.90
12504;DHT22;6316;48.118;-1.690;2023-02-15T08:02:41;5.80;99.90
12504;DHT22;6316;48.118;-1.690;2023-02-15T08:05:07;5.90;99.90
12504;DHT22;6316;48.118;-1.690;2023-02-15T08:07:33;6.00;99.90
12504;DHT22;6316;48.118;-1.690;2023-02-15T08:09:58;6.10;99.90
12504;DHT22;6316;48.118;-1.690;2023-02-15T08:12:27;6.20;99.90
12504;DHT22;6316;48.118;-1.690;2023-02-15T08:14:53;6.20;99.90
12504;DHT22;6316;48.118;-1.690;2023-02-15T08:17:19;6.30;99.90
12504;DHT22;6316;48.118;-1.690;2023-02-15T08:19:44;6.40;99.90
12504;DHT22;6316;48.118;-1.690;2023-02-15T08:22:13;6.40;99.90
12504;DHT22;6316;48.118;-1.690;2023-02-15T08:24:40;6.40;99.90
12504;DHT22;6316;48.118;-1.690;2023-02-15T08:27:07;6.50;99.90
12504;DHT22;6316;48.118;-1.690;2023-02-15T08:29:34;6.50;99.90
12504;DHT22;6316;48.118;-1.690;2023-02-15T08:32:03;6.50;99.90
12504;DHT22;6316;48.118;-1.690;2023-02-15T08:34:31;6.50;99.90
12504;DHT22;6316;48.118;-1.690;2023-02-15T08:36:57;6.60;99.90
12504;DHT22;6316;48.118;-1.690;2023-02-15T08:39:23;6.60;99.90
12504;DHT22;6316;48.118;-1.690;2023-02-15T08:41:50;6.60;99.90
12504;DHT22;6316;48.118;-1.690;2023-02-15T08:44:18;6.70;99.90
12504;DHT22;6316;48.118;-1.690;2023-02-15T08:46:45;6.70;99.90
12504;DHT22;6316;48.118;-1.690;2023-02-15T08:49:22;6.80;99.90
12504;DHT22;6316;48.118;-1.690;2023-02-15T08:51:48;6.80;99.90
12504;DHT22;6316;48.118;-1.690;2023-02-15T08:54:18;6.90;99.90
12504;DHT22;6316;48.118;-1.690;2023-02-15T08:56:44;6.90;99.90
12504;DHT22;6316;48.118;-1.690;2023-02-15T08:59:16;7.00;99.90
12504;DHT22;6316;48.118;-1.690;2023-02-15T09:01:42;7.10;99.90
12504;DHT22;6316;48.118;-1.690;2023-02-15T09:04:08;7.10;99.90
12504;DHT22;6316;48.118;-1.690;2023-02-15T09:06:34;7.20;99.90
12504;DHT22;6316;48.118;-1.690;2023-02-15T09:09:00;7.20;99.90
12504;DHT22;6316;48.118;-1.690;2023-02-15T09:11:28;7.20;99.90
12504;DHT22;6316;48.118;-1.690;2023-02-15T09:14:00;7.30;99.90
12504;DHT22;6316;48.118;-1.690;2023-02-15T09:16:28;7.30;99.90
12504;DHT22;6316;48.118;-1.690;2023-02-15T09:18:55;7.40;99.90
12504;DHT22;6316;48.118;-1.690;2023-02-15T09:21:24;7.50;99.90
12504;DHT22;6316;48.118;-1.690;2023-02-15T09:23:51;7.50;99.90
12504;DHT22;6316;48.118;-1.690;2023-02-15T09:26:20;7.60;99.90
12504;DHT22;6316;48.118;-1.690;2023-02-15T09:28:47;7.70;99.90
12504;DHT22;6316;48.118;-1.690;2023-02-15T09:31:21;7.80;99.90
12504;DHT22;6316;48.118;-1.690;2023-02-15T09:33:48;7.80;99.90
12504;DHT22;6316;48.118;-1.690;2023-02-15T09:36:23;7.90;99.90
12504;DHT22;6316;48.118;-1.690;2023-02-15T09:47:22;8.20;99.90
12504;DHT22;6316;48.118;-1.690;2023-02-15T10:20:32;9.00;99.90
12504;DHT22;6316;48.118;-1.690;2023-02-15T10:28:14;9.20;99.90
12504;DHT22;6316;48.118;-1.690;2023-02-15T10:30:47;9.20;99.90
12504;DHT22;6316;48.118;-1.690;2023-02-15T10:36:05;9.40;99.90
12504;DHT22;6316;48.118;-1.690;2023-02-15T10:43:47;9.50;99.90
12504;DHT22;6316;48.118;-1.690;2023-02-15T10:46:25;9.70;99.90
12504;DHT22;6316;48.118;-1.690;2023-02-15T10:56:59;9.90;99.90
12504;DHT22;6316;48.118;-1.690;2023-02-15T11:00:09;9.90;99.90
12504;DHT22;6316;48.118;-1.690;2023-02-15T11:03:14;10.00;99.90
12504;DHT22;6316;48.118;-1.690;2023-02-15T11:06:04;10.10;99.90
12504;DHT22;6316;48.118;-1.690;2023-02-15T11:08:34;10.10;99.90
12504;DHT22;6316;48.118;-1.690;2023-02-15T11:11:03;10.20;99.90
12504;DHT22;6316;48.118;-1.690;2023-02-15T11:13:36;10.20;99.90
12504;DHT22;6316;48.118;-1.690;2023-02-15T11:18:37;10.40;99.90
12504;DHT22;6316;48.118;-1.690;2023-02-15T11:21:09;10.50;99.90
12504;DHT22;6316;48.118;-1.690;2023-02-15T11:23:42;10.60;99.90
12504;DHT22;6316;48.118;-1.690;2023-02-15T11:26:32;10.60;99.90
12504;DHT22;6316;48.118;-1.690;2023-02-15T11:29:06;10.70;99.90
12504;DHT22;6316;48.118;-1.690;2023-02-15T11:31:43;10.70;99.90
12504;DHT22;6316;48.118;-1.690;2023-02-15T11:34:19;10.80;99.90
12504;DHT22;6316;48.118;-1.690;2023-02-15T11:36:47;10.80;99.90
12504;DHT22;6316;48.118;-1.690;2023-02-15T11:39:16;10.90;99.90
12504;DHT22;6316;48.118;-1.690;2023-02-15T11:41:49;11.00;99.90
12504;DHT22;6316;48.118;-1.690;2023-02-15T11:44:21;11.10;99.90
12504;DHT22;6316;48.118;-1.690;2023-02-15T11:46:48;11.20;99.90
12504;DHT22;6316;48.118;-1.690;2023-02-15T11:49:21;11.20;99.90
12504;DHT22;6316;48.118;-1.690;2023-02-15T11:51:48;11.30;99.90
12504;DHT22;6316;48.118;-1.690;2023-02-15T11:54:18;11.40;99.90
12504;DHT22;6316;48.118;-1.690;2023-02-15T11:56:44;11.40;99.90
12504;DHT22;6316;48.118;-1.690;2023-02-15T11:59:16;11.50;99.90
12504;DHT22;6316;48.118;-1.690;2023-02-15T12:01:45;11.50;99.90
12504;DHT22;6316;48.118;-1.690;2023-02-15T12:04:21;11.60;99.90
12504;DHT22;6316;48.118;-1.690;2023-02-15T12:06:57;11.70;99.90
12504;DHT22;6316;48.118;-1.690;2023-02-15T12:09:32;11.70;99.90
12504;DHT22;6316;48.118;-1.690;2023-02-15T12:14:53;11.80;99.90
12504;DHT22;6316;48.118;-1.690;2023-02-15T12:17:29;11.80;99.90
12504;DHT22;6316;48.118;-1.690;2023-02-15T12:20:05;11.90;99.90
12504;DHT22;6316;48.118;-1.690;2023-02-15T12:22:34;12.00;99.90
12504;DHT22;6316;48.118;-1.690;2023-02-15T12:25:10;12.10;99.90
12504;DHT22;6316;48.118;-1.690;2023-02-15T12:27:46;12.10;99.90
12504;DHT22;6316;48.118;-1.690;2023-02-15T12:30:20;12.20;99.90
12504;DHT22;6316;48.118;-1.690;2023-02-15T12:32:53;12.30;99.90
12504;DHT22;6316;48.118;-1.690;2023-02-15T12:35:29;12.40;99.90
12504;DHT22;6316;48.118;-1.690;2023-02-15T12:38:02;12.50;99.90
12504;DHT22;6316;48.118;-1.690;2023-02-15T12:40:30;12.60;99.90
12504;DHT22;6316;48.118;-1.690;2023-02-15T12:42:56;12.70;99.90
12504;DHT22;6316;48.118;-1.690;2023-02-15T12:45:33;12.80;99.90
12504;DHT22;6316;48.118;-1.690;2023-02-15T12:50:43;13.00;99.90
12504;DHT22;6316;48.118;-1.690;2023-02-15T12:53:22;13.00;99.90
12504;DHT22;6316;48.118;-1.690;2023-02-15T12:55:55;13.10;99.90
12504;DHT22;6316;48.118;-1.690;2023-02-15T12:58:24;13.20;99.90
12504;DHT22;6316;48.118;-1.690;2023-02-15T13:01:17;13.20;99.90
12504;DHT22;6316;48.118;-1.690;2023-02-15T13:03:56;13.20;99.90
12504;DHT22;6316;48.118;-1.690;2023-02-15T13:06:23;13.20;99.90
12504;DHT22;6316;48.118;-1.690;2023-02-15T13:08:58;13.20;99.90
12504;DHT22;6316;48.118;-1.690;2023-02-15T13:11:31;13.20;99.90
12504;DHT22;6316;48.118;-1.690;2023-02-15T13:14:16;13.20;99.90
12504;DHT22;6316;48.118;-1.690;2023-02-15T13:16:45;13.30;99.90
12504;DHT22;6316;48.118;-1.690;2023-02-15T13:19:22;13.30;99.90
12504;DHT22;6316;48.118;-1.690;2023-02-15T13:21:53;13.40;99.90
12504;DHT22;6316;48.118;-1.690;2023-02-15T13:24:27;13.40;99.90
12504;DHT22;6316;48.118;-1.690;2023-02-15T13:26:56;13.40;99.90
12504;DHT22;6316;48.118;-1.690;2023-02-15T13:29:43;13.50;99.90
12504;DHT22;6316;48.118;-1.690;2023-02-15T13:32:34;13.50;99.90
12504;DHT22;6316;48.118;-1.690;2023-02-15T13:35:04;13.50;99.90
12504;DHT22;6316;48.118;-1.690;2023-02-15T13:40:13;13.60;99.90
12504;DHT22;6316;48.118;-1.690;2023-02-15T13:53:42;13.70;99.90
12504;DHT22;6316;48.118;-1.690;2023-02-15T14:04:35;13.90;99.90
12504;DHT22;6316;48.118;-1.690;2023-02-15T14:07:26;13.90;99.90
12504;DHT22;6316;48.118;-1.690;2023-02-15T14:13:02;14.00;99.90
12504;DHT22;6316;48.118;-1.690;2023-02-15T14:15:47;14.00;99.90
12504;DHT22;6316;48.118;-1.690;2023-02-15T14:21:15;14.10;99.90
12504;DHT22;6316;48.118;-1.690;2023-02-15T14:27:03;14.20;99.90
12504;DHT22;6316;48.118;-1.690;2023-02-15T14:30:18;14.20;99.90
12504;DHT22;6316;48.118;-1.690;2023-02-15T14:35:00;14.40;99.90
12504;DHT22;6316;48.118;-1.690;2023-02-15T14:49:16;14.60;99.90
12504;DHT22;6316;48.118;-1.690;2023-02-15T14:59:46;14.80;99.90
12504;DHT22;6316;48.118;-1.690;2023-02-15T15:02:39;14.80;99.90
12504;DHT22;6316;48.118;-1.690;2023-02-15T15:05:07;14.80;99.90
12504;DHT22;6316;48.118;-1.690;2023-02-15T15:07:51;14.80;99.90
12504;DHT22;6316;48.118;-1.690;2023-02-15T15:12:46;14.80;99.90
12504;DHT22;6316;48.118;-1.690;2023-02-15T15:18:07;14.90;99.90
12504;DHT22;6316;48.118;-1.690;2023-02-15T15:20:47;14.90;99.90
12504;DHT22;6316;48.118;-1.690;2023-02-15T15:48:36;15.10;99.90
12504;DHT22;6316;48.118;-1.690;2023-02-15T15:51:21;15.10;99.90
12504;DHT22;6316;48.118;-1.690;2023-02-15T15:53:50;15.00;99.90
12504;DHT22;6316;48.118;-1.690;2023-02-15T15:56:26;15.00;99.90
12504;DHT22;6316;48.118;-1.690;2023-02-15T15:58:59;15.00;99.90
12504;DHT22;6316;48.118;-1.690;2023-02-15T16:01:29;15.00;99.90
12504;DHT22;6316;48.118;-1.690;2023-02-15T16:03:56;15.00;99.90
12504;DHT22;6316;48.118;-1.690;2023-02-15T16:08:52;15.00;99.90
12504;DHT22;6316;48.118;-1.690;2023-02-15T16:11:25;15.00;99.90
12504;DHT22;6316;48.118;-1.690;2023-02-15T16:13:52;15.10;99.90
12504;DHT22;6316;48.118;-1.690;2023-02-15T16:16:27;15.10;99.90
12504;DHT22;6316;48.118;-1.690;2023-02-15T16:18:58;15.20;99.90
12504;DHT22;6316;48.118;-1.690;2023-02-15T16:21:29;15.30;99.90
12504;DHT22;6316;48.118;-1.690;2023-02-15T16:24:20;15.30;99.90
12504;DHT22;6316;48.118;-1.690;2023-02-15T16:27:13;15.40;99.90
12504;DHT22;6316;48.118;-1.690;2023-02-15T16:29:40;15.40;99.90
12504;DHT22;6316;48.118;-1.690;2023-02-15T16:34:57;15.50;99.90
12504;DHT22;6316;48.118;-1.690;2023-02-15T16:37:31;15.50;99.90
12504;DHT22;6316;48.118;-1.690;2023-02-15T16:39:57;15.40;99.90
12504;DHT22;6316;48.118;-1.690;2023-02-15T16:42:23;15.30;99.90
12504;DHT22;6316;48.118;-1.690;2023-02-15T16:45:02;15.30;99.90
12504;DHT22;6316;48.118;-1.690;2023-02-15T16:47:33;15.20;99.90
12504;DHT22;6316;48.118;-1.690;2023-02-15T16:50:02;15.10;99.90
12504;DHT22;6316;48.118;-1.690;2023-02-15T16:52:29;15.10;99.90
12504;DHT22;6316;48.118;-1.690;2023-02-15T16:55:05;15.00;99.90
12504;DHT22;6316;48.118;-1.690;2023-02-15T16:57:36;15.00;99.90
12504;DHT22;6316;48.118;-1.690;2023-02-15T17:00:20;14.90;99.90
12504;DHT22;6316;48.118;-1.690;2023-02-15T17:02:59;14.80;99.90
12504;DHT22;6316;48.118;-1.690;2023-02-15T17:05:31;14.70;99.90
12504;DHT22;6316;48.118;-1.690;2023-02-15T17:08:16;14.60;99.90
12504;DHT22;6316;48.118;-1.690;2023-02-15T17:10:59;14.60;99.90
12504;DHT22;6316;48.118;-1.690;2023-02-15T17:13:28;14.50;99.90
12504;DHT22;6316;48.118;-1.690;2023-02-15T17:18:46;14.30;99.90
12504;DHT22;6316;48.118;-1.690;2023-02-15T17:21:20;14.20;99.90
12504;DHT22;6316;48.118;-1.690;2023-02-15T17:23:51;14.00;99.90
12504;DHT22;6316;48.118;-1.690;2023-02-15T17:26:43;13.90;99.90
12504;DHT22;6316;48.118;-1.690;2023-02-15T17:31:59;13.70;99.90
12504;DHT22;6316;48.118;-1.690;2023-02-15T17:37:13;13.60;99.90
12504;DHT22;6316;48.118;-1.690;2023-02-15T17:39:47;13.50;99.90
12504;DHT22;6316;48.118;-1.690;2023-02-15T17:42:13;13.40;99.90
12504;DHT22;6316;48.118;-1.690;2023-02-15T17:44:38;13.30;99.90
12504;DHT22;6316;48.118;-1.690;2023-02-15T17:47:04;13.30;99.90
12504;DHT22;6316;48.118;-1.690;2023-02-15T17:49:30;13.20;99.90
12504;DHT22;6316;48.118;-1.690;2023-02-15T17:52:00;13.10;99.90
12504;DHT22;6316;48.118;-1.690;2023-02-15T17:54:26;13.10;99.90
12504;DHT22;6316;48.118;-1.690;2023-02-15T17:57:12;13.00;99.90
12504;DHT22;6316;48.118;-1.690;2023-02-15T17:59:38;12.90;99.90
12504;DHT22;6316;48.118;-1.690;2023-02-15T18:02:22;12.90;99.90
12504;DHT22;6316;48.118;-1.690;2023-02-15T18:05:16;12.90;99.90
12504;DHT22;6316;48.118;-1.690;2023-02-15T18:08:00;12.80;99.90
12504;DHT22;6316;48.118;-1.690;2023-02-15T18:10:44;12.70;99.90
12504;DHT22;6316;48.118;-1.690;2023-02-15T18:13:28;12.70;99.90
12504;DHT22;6316;48.118;-1.690;2023-02-15T18:15:54;12.70;99.90
12504;DHT22;6316;48.118;-1.690;2023-02-15T18:18:21;12.70;99.90
12504;DHT22;6316;48.118;-1.690;2023-02-15T18:20:48;12.70;99.90
12504;DHT22;6316;48.118;-1.690;2023-02-15T18:23:14;12.70;99.90
12504;DHT22;6316;48.118;-1.690;2023-02-15T18:25:40;12.70;99.90
12504;DHT22;6316;48.118;-1.690;2023-02-15T18:28:07;12.70;99.90
12504;DHT22;6316;48.118;-1.690;2023-02-15T18:30:35;12.70;99.90
12504;DHT22;6316;48.118;-1.690;2023-02-15T18:33:01;12.70;99.90
12504;DHT22;6316;48.118;-1.690;2023-02-15T18:35:31;12.70;99.90
12504;DHT22;6316;48.118;-1.690;2023-02-15T18:37:58;12.60;99.90
12504;DHT22;6316;48.118;-1.690;2023-02-15T18:40:26;12.60;99.90
12504;DHT22;6316;48.118;-1.690;2023-02-15T18:42:53;12.60;99.90
12504;DHT22;6316;48.118;-1.690;2023-02-15T18:45:26;12.60;99.90
12504;DHT22;6316;48.118;-1.690;2023-02-15T18:47:56;12.50;99.90
12504;DHT22;6316;48.118;-1.690;2023-02-15T18:50:23;12.50;99.90
12504;DHT22;6316;48.118;-1.690;2023-02-15T18:52:50;12.50;99.90
12504;DHT22;6316;48.118;-1.690;2023-02-15T18:57:47;12.40;99.90
12504;DHT22;6316;48.118;-1.690;2023-02-15T19:00:27;12.40;99.90
12504;DHT22;6316;48.118;-1.690;2023-02-15T19:02:54;12.40;99.90
12504;DHT22;6316;48.118;-1.690;2023-02-15T19:05:20;12.40;99.90
12504;DHT22;6316;48.118;-1.690;2023-02-15T19:07:47;12.40;99.90
12504;DHT22;6316;48.118;-1.690;2023-02-15T19:10:22;12.30;99.90
12504;DHT22;6316;48.118;-1.690;2023-02-15T19:12:49;12.30;99.90
12504;DHT22;6316;48.118;-1.690;2023-02-15T19:15:21;12.30;99.90
12504;DHT22;6316;48.118;-1.690;2023-02-15T19:17:47;12.20;99.90
12504;DHT22;6316;48.118;-1.690;2023-02-15T19:20:20;12.20;99.90
12504;DHT22;6316;48.118;-1.690;2023-02-15T19:22:49;12.20;99.90
12504;DHT22;6316;48.118;-1.690;2023-02-15T19:25:21;12.10;99.90